sensor_id;sensor_type;location;lat;lon;timestamp;P1;durP1;ratioP1;P2;durP2;ratioP2
10605;SDS011;5350;42.698;23.148;2023-02-28T00:00:29;831.43;;;34.83;;
10605;SDS011;5350;42.698;23.148;2023-02-28T00:02:57;456.70;;;18.23;;
10605;SDS011;5350;42.698;23.148;2023-02-28T00:05:24;267.50;;;14.97;;
10605;SDS011;5350;42.698;23.148;2023-02-28T00:07:52;272.33;;;17.13;;
10605;SDS011;5350;42.698;23.148;2023-02-28T00:10:19;273.67;;;15.33;;
10605;SDS011;5350;42.698;23.148;2023-02-28T00:12:48;201.73;;;14.10;;
10605;SDS011;5350;42.698;23.148;2023-02-28T00:15:15;182.87;;;13.93;;
10605;SDS011;5350;42.698;23.148;2023-02-28T00:17:43;133.03;;;11.63;;
10605;SDS011;5350;42.698;23.148;2023-02-28T00:20:11;121.43;;;13.07;;
10605;SDS011;5350;42.698;23.148;2023-02-28T00:22:39;166.27;;;14.07;;
10605;SDS011;5350;42.698;23.148;2023-02-28T00:25:08;96.43;;;9.90;;
10605;SDS011;5350;42.698;23.148;2023-02-28T00:27:36;85.00;;;14.03;;
10605;SDS011;5350;42.698;23.148;2023-02-28T00:30:05;104.70;;;16.03;;
10605;SDS011;5350;42.698;23.148;2023-02-28T00:32:34;40.87;;;9.23;;
10605;SDS011;5350;42.698;23.148;2023-02-28T00:35:02;12.27;;;7.43;;
10605;SDS011;5350;42.698;23.148;2023-02-28T00:37:29;10.20;;;7.37;;
10605;SDS011;5350;42.698;23.148;2023-02-28T00:39:55;12.93;;;8.20;;
10605;SDS011;5350;42.698;23.148;2023-02-28T00:42:23;14.20;;;8.40;;
10605;SDS011;5350;42.698;23.148;2023-02-28T00:44:50;41.47;;;10.40;;
10605;SDS011;5350;42.698;23.148;2023-02-28T00:47:16;21.97;;;9.43;;
10605;SDS011;5350;42.698;23.148;2023-02-28T00:49:43;115.83;;;15.57;;
10605;SDS011;5350;42.698;23.148;2023-02-28T00:52:11;208.67;;;16.07;;
10605;SDS011;5350;42.698;23.148;2023-02-28T00:54:38;109.57;;;16.90;;
10605;SDS011;5350;42.698;23.148;2023-02-28T00:57:04;167.03;;;15.57;;
10605;SDS011;5350;42.698;23.148;2023-02-28T00:59:31;26.50;;;10.93;;
10605;SDS011;5350;42.698;23.148;2023-02-28T01:01:58;34.20;;;11.37;;
10605;SDS011;5350;42.698;23.148;2023-02-28T01:04:25;38.23;;;11.13;;
10605;SDS011;5350;42.698;23.148;2023-02-28T01:06:52;41.40;;;16.13;;
10605;SDS011;5350;42.698;23.148;2023-02-28T01:09:20;188.37;;;21.40;;
10605;SDS011;5350;42.698;23.148;2023-02-28T01:11:46;56.87;;;16.83;;
10605;SDS011;5350;42.698;23.148;2023-02-28T01:14:14;38.63;;;15.03;;
10605;SDS011;5350;42.698;23.148;2023-02-28T01:16:42;49.20;;;13.97;;
10605;SDS011;5350;42.698;23.148;2023-02-28T01:19:09;50.80;;;15.43;;
10605;SDS011;5350;42.698;23.148;2023-02-28T01:21:36;33.70;;;11.73;;
10605;SDS011;5350;42.698;23.148;2023-02-28T01:24:03;28.10;;;11.97;;
10605;SDS011;5350;42.698;23.148;2023-02-28T01:26:32;19.97;;;10.70;;
10605;SDS011;5350;42.698;23.148;2023-02-28T01:28:59;21.13;;;10.20;;
10605;SDS011;5350;42.698;23.148;2023-02-28T01:31:25;19.97;;;12.53;;
10605;SDS011;5350;42.698;23.148;2023-02-28T01:33:52;19.57;;;12.27;;
10605;SDS011;5350;42.698;23.148;2023-02-28T01:36:20;18.70;;;12.00;;
10605;SDS011;5350;42.698;23.148;2023-02-28T01:38:47;17.57;;;10.53;;
10605;SDS011;5350;42.698;23.148;2023-02-28T01:41:15;18.47;;;11.10;;
10605;SDS011;5350;42.698;23.148;2023-02-28T01:43:58;19.63;;;11.10;;
10605;SDS011;5350;42.698;23.148;2023-02-28T01:46:29;31.03;;;12.40;;
10605;SDS011;5350;42.698;23.148;2023-02-28T01:48:59;161.27;;;17.33;;
10605;SDS011;5350;42.698;23.148;2023-02-28T01:51:30;111.30;;;16.60;;
10605;SDS011;5350;42.698;23.148;2023-02-28T01:54:02;337.33;;;23.93;;
10605;SDS011;5350;42.698;23.148;2023-02-28T01:56:38;208.00;;;19.27;;
10605;SDS011;5350;42.698;23.148;2023-02-28T01:59:11;246.80;;;22.17;;
10605;SDS011;5350;42.698;23.148;2023-02-28T02:01:40;475.77;;;28.43;;
10605;SDS011;5350;42.698;23.148;2023-02-28T02:04:07;504.93;;;30.43;;
10605;SDS011;5350;42.698;23.148;2023-02-28T02:06:35;523.13;;;32.57;;
10605;SDS011;5350;42.698;23.148;2023-02-28T02:09:05;487.03;;;28.10;;
10605;SDS011;5350;42.698;23.148;2023-02-28T02:11:32;634.13;;;36.20;;
10605;SDS011;5350;42.698;23.148;2023-02-28T02:14:12;396.00;;;24.07;;
10605;SDS011;5350;42.698;23.148;2023-02-28T02:17:13;358.33;;;24.53;;
10605;SDS011;5350;42.698;23.148;2023-02-28T02:19:55;138.13;;;15.33;;
10605;SDS011;5350;42.698;23.148;2023-02-28T02:25:50;496.37;;;29.40;;
10605;SDS011;5350;42.698;23.148;2023-02-28T02:28:33;239.73;;;19.90;;
10605;SDS011;5350;42.698;23.148;2023-02-28T02:31:16;300.00;;;23.80;;
10605;SDS011;5350;42.698;23.148;2023-02-28T02:34:05;573.13;;;31.57;;
10605;SDS011;5350;42.698;23.148;2023-02-28T02:36:45;316.17;;;20.53;;
10605;SDS011;5350;42.698;23.148;2023-02-28T02:39:18;356.33;;;21.47;;
10605;SDS011;5350;42.698;23.148;2023-02-28T02:41:49;379.70;;;24.07;;
10605;SDS011;5350;42.698;23.148;2023-02-28T02:44:20;382.63;;;22.67;;
10605;SDS011;5350;42.698;23.148;2023-02-28T02:46:51;532.40;;;26.23;;
10605;SDS011;5350;42.698;23.148;2023-02-28T02:49:22;456.47;;;24.57;;
10605;SDS011;5350;42.698;23.148;2023-02-28T02:51:53;515.20;;;25.63;;
10605;SDS011;5350;42.698;23.148;2023-02-28T02:54:22;542.67;;;28.37;;
10605;SDS011;5350;42.698;23.148;2023-02-28T02:56:54;452.93;;;24.07;;
10605;SDS011;5350;42.698;23.148;2023-02-28T02:59:23;156.93;;;16.13;;
10605;SDS011;5350;42.698;23.148;2023-02-28T03:01:52;429.63;;;31.50;;
10605;SDS011;5350;42.698;23.148;2023-02-28T03:04:23;362.97;;;21.20;;
10605;SDS011;5350;42.698;23.148;2023-02-28T03:06:53;195.97;;;15.63;;
10605;SDS011;5350;42.698;23.148;2023-02-28T03:09:20;306.40;;;21.73;;
10605;SDS011;5350;42.698;23.148;2023-02-28T03:11:47;344.33;;;21.27;;
10605;SDS011;5350;42.698;23.148;2023-02-28T03:14:20;225.73;;;19.47;;
10605;SDS011;5350;42.698;23.148;2023-02-28T03:17:02;364.97;;;20.10;;
10605;SDS011;5350;42.698;23.148;2023-02-28T03:19:54;313.60;;;19.23;;
10605;SDS011;5350;42.698;23.148;2023-02-28T03:22:45;227.70;;;15.70;;
10605;SDS011;5350;42.698;23.148;2023-02-28T03:25:18;59.43;;;10.50;;
10605;SDS011;5350;42.698;23.148;2023-02-28T03:27:52;177.83;;;13.73;;
10605;SDS011;5350;42.698;23.148;2023-02-28T03:30:27;188.97;;;17.30;;
10605;SDS011;5350;42.698;23.148;2023-02-28T03:33:00;251.07;;;16.30;;
10605;SDS011;5350;42.698;23.148;2023-02-28T03:35:34;115.93;;;14.10;;
10605;SDS011;5350;42.698;23.148;2023-02-28T03:38:06;115.37;;;12.77;;
10605;SDS011;5350;42.698;23.148;2023-02-28T03:40:39;175.30;;;16.37;;
10605;SDS011;5350;42.698;23.148;2023-02-28T03:43:12;243.27;;;15.97;;
10605;SDS011;5350;42.698;23.148;2023-02-28T03:45:43;129.00;;;13.43;;
10605;SDS011;5350;42.698;23.148;2023-02-28T03:48:14;156.23;;;13.37;;
10605;SDS011;5350;42.698;23.148;2023-02-28T03:50:47;111.10;;;12.87;;
10605;SDS011;5350;42.698;23.148;2023-02-28T03:53:19;38.17;;;10.73;;
10605;SDS011;5350;42.698;23.148;2023-02-28T03:55:52;233.23;;;18.77;;
10605;SDS011;5350;42.698;23.148;2023-02-28T03:58:24;257.57;;;24.47;;
10605;SDS011;5350;42.698;23.148;2023-02-28T04:00:59;147.90;;;15.00;;
10605;SDS011;5350;42.698;23.148;2023-02-28T04:03:33;113.17;;;11.73;;
10605;SDS011;5350;42.698;23.148;2023-02-28T04:06:03;72.17;;;9.50;;
10605;SDS011;5350;42.698;23.148;2023-02-28T04:08:31;41.60;;;8.97;;
10605;SDS011;5350;42.698;23.148;2023-02-28T04:11:00;47.33;;;11.30;;
10605;SDS011;5350;42.698;23.148;2023-02-28T04:13:31;31.33;;;9.80;;
10605;SDS011;5350;42.698;23.148;2023-02-28T04:15:57;54.43;;;9.37;;
10605;SDS011;5350;42.698;23.148;2023-02-28T04:18:24;65.00;;;9.60;;
10605;SDS011;5350;42.698;23.148;2023-02-28T04:20:51;62.67;;;9.07;;
10605;SDS011;5350;42.698;23.148;2023-02-28T04:23:19;113.03;;;11.20;;
10605;SDS011;5350;42.698;23.148;2023-02-28T04:25:45;30.63;;;9.03;;
10605;SDS011;5350;42.698;23.148;2023-02-28T04:28:12;69.13;;;10.27;;
10605;SDS011;5350;42.698;23.148;2023-02-28T04:30:39;312.53;;;20.00;;
10605;SDS011;5350;42.698;23.148;2023-02-28T04:33:05;92.27;;;12.53;;
10605;SDS011;5350;42.698;23.148;2023-02-28T04:35:32;209.00;;;15.63;;
10605;SDS011;5350;42.698;23.148;2023-02-28T04:37:59;127.53;;;12.17;;
10605;SDS011;5350;42.698;23.148;2023-02-28T04:40:27;119.67;;;12.80;;
10605;SDS011;5350;42.698;23.148;2023-02-28T04:42:54;114.73;;;13.23;;
10605;SDS011;5350;42.698;23.148;2023-02-28T04:45:20;215.33;;;17.53;;
10605;SDS011;5350;42.698;23.148;2023-02-28T04:47:47;157.80;;;14.47;;
10605;SDS011;5350;42.698;23.148;2023-02-28T04:50:14;217.77;;;16.83;;
10605;SDS011;5350;42.698;23.148;2023-02-28T04:52:41;63.27;;;11.63;;
10605;SDS011;5350;42.698;23.148;2023-02-28T04:55:08;134.13;;;12.90;;
10605;SDS011;5350;42.698;23.148;2023-02-28T04:57:36;90.23;;;14.20;;
10605;SDS011;5350;42.698;23.148;2023-02-28T05:00:03;128.67;;;13.93;;
10605;SDS011;5350;42.698;23.148;2023-02-28T05:02:36;57.37;;;10.97;;
10605;SDS011;5350;42.698;23.148;2023-02-28T05:05:03;83.07;;;12.20;;
10605;SDS011;5350;42.698;23.148;2023-02-28T05:07:30;50.63;;;10.90;;
10605;SDS011;5350;42.698;23.148;2023-02-28T05:09:57;42.43;;;11.00;;
10605;SDS011;5350;42.698;23.148;2023-02-28T05:12:23;77.83;;;12.50;;
10605;SDS011;5350;42.698;23.148;2023-02-28T05:14:52;84.87;;;12.87;;
10605;SDS011;5350;42.698;23.148;2023-02-28T05:17:18;91.23;;;13.23;;
10605;SDS011;5350;42.698;23.148;2023-02-28T05:19:45;73.23;;;12.23;;
10605;SDS011;5350;42.698;23.148;2023-02-28T05:22:13;130.93;;;17.77;;
10605;SDS011;5350;42.698;23.148;2023-02-28T05:24:41;36.23;;;12.70;;
10605;SDS011;5350;42.698;23.148;2023-02-28T05:27:08;164.37;;;16.30;;
10605;SDS011;5350;42.698;23.148;2023-02-28T05:29:35;76.50;;;13.47;;
10605;SDS011;5350;42.698;23.148;2023-02-28T05:32:08;29.30;;;12.83;;
10605;SDS011;5350;42.698;23.148;2023-02-28T05:34:35;95.43;;;13.50;;
10605;SDS011;5350;42.698;23.148;2023-02-28T05:37:02;36.93;;;12.43;;
10605;SDS011;5350;42.698;23.148;2023-02-28T05:39:29;74.37;;;13.90;;
10605;SDS011;5350;42.698;23.148;2023-02-28T05:41:56;80.17;;;13.00;;
10605;SDS011;5350;42.698;23.148;2023-02-28T05:44:23;79.57;;;13.17;;
10605;SDS011;5350;42.698;23.148;2023-02-28T05:46:50;98.97;;;14.30;;
10605;SDS011;5350;42.698;23.148;2023-02-28T05:49:18;106.90;;;16.87;;
10605;SDS011;5350;42.698;23.148;2023-02-28T05:51:44;165.10;;;15.93;;
10605;SDS011;5350;42.698;23.148;2023-02-28T05:54:11;197.63;;;16.23;;
10605;SDS011;5350;42.698;23.148;2023-02-28T05:56:38;497.30;;;25.80;;
10605;SDS011;5350;42.698;23.148;2023-02-28T05:59:05;256.73;;;16.10;;
10605;SDS011;5350;42.698;23.148;2023-02-28T06:01:33;362.13;;;20.40;;
10605;SDS011;5350;42.698;23.148;2023-02-28T06:04:01;230.83;;;18.63;;
10605;SDS011;5350;42.698;23.148;2023-02-28T06:06:31;417.43;;;23.90;;
10605;SDS011;5350;42.698;23.148;2023-02-28T06:08:59;429.30;;;24.00;;
10605;SDS011;5350;42.698;23.148;2023-02-28T06:11:26;392.90;;;22.10;;
10605;SDS011;5350;42.698;23.148;2023-02-28T06:13:53;366.40;;;22.37;;
10605;SDS011;5350;42.698;23.148;2023-02-28T06:16:21;300.40;;;18.53;;
10605;SDS011;5350;42.698;23.148;2023-02-28T06:18:48;545.83;;;24.77;;
10605;SDS011;5350;42.698;23.148;2023-02-28T06:21:15;112.83;;;15.60;;
10605;SDS011;5350;42.698;23.148;2023-02-28T06:23:43;443.50;;;24.63;;
10605;SDS011;5350;42.698;23.148;2023-02-28T06:26:10;466.07;;;22.57;;
10605;SDS011;5350;42.698;23.148;2023-02-28T06:28:36;437.03;;;26.90;;
10605;SDS011;5350;42.698;23.148;2023-02-28T06:31:07;358.63;;;20.47;;
10605;SDS011;5350;42.698;23.148;2023-02-28T06:33:34;308.60;;;18.27;;
10605;SDS011;5350;42.698;23.148;2023-02-28T06:36:01;260.33;;;19.93;;
10605;SDS011;5350;42.698;23.148;2023-02-28T06:38:29;270.10;;;19.90;;
10605;SDS011;5350;42.698;23.148;2023-02-28T06:40:58;458.37;;;23.73;;
10605;SDS011;5350;42.698;23.148;2023-02-28T06:43:27;481.77;;;24.90;;
10605;SDS011;5350;42.698;23.148;2023-02-28T06:45:55;470.77;;;25.67;;
10605;SDS011;5350;42.698;23.148;2023-02-28T06:48:23;219.83;;;20.93;;
10605;SDS011;5350;42.698;23.148;2023-02-28T06:50:50;342.37;;;23.23;;
10605;SDS011;5350;42.698;23.148;2023-02-28T06:53:16;388.03;;;27.80;;
10605;SDS011;5350;42.698;23.148;2023-02-28T06:55:43;319.93;;;25.63;;
10605;SDS011;5350;42.698;23.148;2023-02-28T06:58:11;379.77;;;25.70;;
10605;SDS011;5350;42.698;23.148;2023-02-28T07:00:43;106.03;;;18.97;;
10605;SDS011;5350;42.698;23.148;2023-02-28T07:03:11;195.60;;;21.37;;
10605;SDS011;5350;42.698;23.148;2023-02-28T07:05:40;158.30;;;19.63;;
10605;SDS011;5350;42.698;23.148;2023-02-28T07:08:07;223.17;;;23.23;;
10605;SDS011;5350;42.698;23.148;2023-02-28T07:10:33;138.10;;;19.47;;
10605;SDS011;5350;42.698;23.148;2023-02-28T07:13:03;230.10;;;21.60;;
10605;SDS011;5350;42.698;23.148;2023-02-28T07:15:31;140.43;;;20.47;;
10605;SDS011;5350;42.698;23.148;2023-02-28T07:17:58;420.67;;;27.60;;
10605;SDS011;5350;42.698;23.148;2023-02-28T07:20:25;133.87;;;19.43;;
10605;SDS011;5350;42.698;23.148;2023-02-28T07:22:52;201.20;;;22.63;;
10605;SDS011;5350;42.698;23.148;2023-02-28T07:25:21;101.30;;;19.90;;
10605;SDS011;5350;42.698;23.148;2023-02-28T07:27:48;445.60;;;29.00;;
10605;SDS011;5350;42.698;23.148;2023-02-28T07:30:15;130.10;;;20.13;;
10605;SDS011;5350;42.698;23.148;2023-02-28T07:32:44;153.53;;;23.40;;
10605;SDS011;5350;42.698;23.148;2023-02-28T07:35:11;200.27;;;22.73;;
10605;SDS011;5350;42.698;23.148;2023-02-28T07:37:40;161.13;;;23.23;;
10605;SDS011;5350;42.698;23.148;2023-02-28T07:40:09;185.57;;;22.60;;
10605;SDS011;5350;42.698;23.148;2023-02-28T07:42:38;134.03;;;23.30;;
10605;SDS011;5350;42.698;23.148;2023-02-28T07:45:06;185.03;;;22.53;;
10605;SDS011;5350;42.698;23.148;2023-02-28T07:47:36;268.80;;;24.33;;
10605;SDS011;5350;42.698;23.148;2023-02-28T07:50:05;84.03;;;21.80;;
10605;SDS011;5350;42.698;23.148;2023-02-28T07:52:32;125.53;;;22.33;;
10605;SDS011;5350;42.698;23.148;2023-02-28T07:54:59;71.80;;;22.37;;
10605;SDS011;5350;42.698;23.148;2023-02-28T07:57:26;150.80;;;23.70;;
10605;SDS011;5350;42.698;23.148;2023-02-28T07:59:52;77.37;;;22.77;;
10605;SDS011;5350;42.698;23.148;2023-02-28T08:02:19;54.30;;;22.47;;
10605;SDS011;5350;42.698;23.148;2023-02-28T08:04:46;288.13;;;28.40;;
10605;SDS011;5350;42.698;23.148;2023-02-28T08:07:15;108.63;;;26.00;;
10605;SDS011;5350;42.698;23.148;2023-02-28T08:09:42;109.20;;;24.77;;
10605;SDS011;5350;42.698;23.148;2023-02-28T08:12:10;150.70;;;26.40;;
10605;SDS011;5350;42.698;23.148;2023-02-28T08:14:37;81.20;;;24.87;;
10605;SDS011;5350;42.698;23.148;2023-02-28T08:17:04;219.03;;;28.13;;
10605;SDS011;5350;42.698;23.148;2023-02-28T08:19:31;199.00;;;28.83;;
10605;SDS011;5350;42.698;23.148;2023-02-28T08:21:58;112.50;;;27.57;;
10605;SDS011;5350;42.698;23.148;2023-02-28T08:24:26;139.50;;;27.93;;
10605;SDS011;5350;42.698;23.148;2023-02-28T08:26:54;53.67;;;25.53;;
10605;SDS011;5350;42.698;23.148;2023-02-28T08:29:20;72.13;;;25.27;;
10605;SDS011;5350;42.698;23.148;2023-02-28T08:31:47;45.77;;;23.63;;
10605;SDS011;5350;42.698;23.148;2023-02-28T08:34:15;59.40;;;25.27;;
10605;SDS011;5350;42.698;23.148;2023-02-28T08:36:43;55.47;;;25.53;;
10605;SDS011;5350;42.698;23.148;2023-02-28T08:39:10;42.67;;;23.63;;
10605;SDS011;5350;42.698;23.148;2023-02-28T08:41:39;49.53;;;25.13;;
10605;SDS011;5350;42.698;23.148;2023-02-28T08:44:06;41.97;;;23.97;;
10605;SDS011;5350;42.698;23.148;2023-02-28T08:46:32;46.80;;;24.67;;
10605;SDS011;5350;42.698;23.148;2023-02-28T08:48:59;52.13;;;25.20;;
10605;SDS011;5350;42.698;23.148;2023-02-28T08:51:27;45.87;;;24.73;;
10605;SDS011;5350;42.698;23.148;2023-02-28T08:53:55;56.23;;;25.63;;
10605;SDS011;5350;42.698;23.148;2023-02-28T08:56:24;45.53;;;24.80;;
10605;SDS011;5350;42.698;23.148;2023-02-28T08:58:54;56.57;;;26.17;;
10605;SDS011;5350;42.698;23.148;2023-02-28T09:01:22;48.30;;;25.50;;
10605;SDS011;5350;42.698;23.148;2023-02-28T09:03:51;56.27;;;26.37;;
10605;SDS011;5350;42.698;23.148;2023-02-28T09:06:19;42.63;;;25.30;;
10605;SDS011;5350;42.698;23.148;2023-02-28T09:08:47;50.93;;;27.40;;
10605;SDS011;5350;42.698;23.148;2023-02-28T09:11:14;52.33;;;26.63;;
10605;SDS011;5350;42.698;23.148;2023-02-28T09:13:41;52.47;;;27.13;;
10605;SDS011;5350;42.698;23.148;2023-02-28T09:16:11;58.80;;;27.53;;
10605;SDS011;5350;42.698;23.148;2023-02-28T09:18:39;48.97;;;27.53;;
10605;SDS011;5350;42.698;23.148;2023-02-28T09:21:07;58.00;;;28.23;;
10605;SDS011;5350;42.698;23.148;2023-02-28T09:23:36;55.80;;;27.83;;
10605;SDS011;5350;42.698;23.148;2023-02-28T09:26:04;55.80;;;28.00;;
10605;SDS011;5350;42.698;23.148;2023-02-28T09:28:31;49.30;;;27.67;;
10605;SDS011;5350;42.698;23.148;2023-02-28T09:30:57;55.07;;;28.80;;
10605;SDS011;5350;42.698;23.148;2023-02-28T09:33:26;51.67;;;29.17;;
10605;SDS011;5350;42.698;23.148;2023-02-28T09:35:57;56.10;;;31.13;;
10605;SDS011;5350;42.698;23.148;2023-02-28T09:38:25;60.70;;;30.67;;
10605;SDS011;5350;42.698;23.148;2023-02-28T09:40:53;58.23;;;29.40;;
10605;SDS011;5350;42.698;23.148;2023-02-28T09:43:23;56.57;;;28.33;;
10605;SDS011;5350;42.698;23.148;2023-02-28T09:45:54;52.07;;;29.17;;
10605;SDS011;5350;42.698;23.148;2023-02-28T09:48:27;47.53;;;27.07;;
10605;SDS011;5350;42.698;23.148;2023-02-28T09:51:02;53.50;;;29.80;;
10605;SDS011;5350;42.698;23.148;2023-02-28T09:53:31;56.70;;;29.40;;
10605;SDS011;5350;42.698;23.148;2023-02-28T09:56:01;54.00;;;28.87;;
10605;SDS011;5350;42.698;23.148;2023-02-28T09:58:33;52.07;;;29.33;;
10605;SDS011;5350;42.698;23.148;2023-02-28T10:01:06;51.27;;;29.67;;
10605;SDS011;5350;42.698;23.148;2023-02-28T10:03:40;51.40;;;29.13;;
10605;SDS011;5350;42.698;23.148;2023-02-28T10:06:13;51.17;;;28.70;;
10605;SDS011;5350;42.698;23.148;2023-02-28T10:08:45;57.70;;;29.23;;
10605;SDS011;5350;42.698;23.148;2023-02-28T10:11:22;59.97;;;30.60;;
10605;SDS011;5350;42.698;23.148;2023-02-28T10:13:52;54.50;;;30.60;;
10605;SDS011;5350;42.698;23.148;2023-02-28T10:16:27;48.20;;;28.73;;
10605;SDS011;5350;42.698;23.148;2023-02-28T10:19:02;60.97;;;31.00;;
10605;SDS011;5350;42.698;23.148;2023-02-28T10:21:31;53.23;;;32.03;;
10605;SDS011;5350;42.698;23.148;2023-02-28T10:24:05;54.83;;;30.87;;
10605;SDS011;5350;42.698;23.148;2023-02-28T10:26:43;53.87;;;30.43;;
10605;SDS011;5350;42.698;23.148;2023-02-28T10:29:13;51.53;;;29.37;;
10605;SDS011;5350;42.698;23.148;2023-02-28T10:31:40;47.00;;;30.03;;
10605;SDS011;5350;42.698;23.148;2023-02-28T10:34:08;54.83;;;30.90;;
10605;SDS011;5350;42.698;23.148;2023-02-28T10:36:38;50.03;;;30.07;;
10605;SDS011;5350;42.698;23.148;2023-02-28T10:42:20;50.33;;;29.53;;
10605;SDS011;5350;42.698;23.148;2023-02-28T10:45:02;52.20;;;29.77;;
10605;SDS011;5350;42.698;23.148;2023-02-28T10:47:31;45.93;;;30.00;;
10605;SDS011;5350;42.698;23.148;2023-02-28T10:50:03;50.43;;;29.53;;
10605;SDS011;5350;42.698;23.148;2023-02-28T10:52:33;47.67;;;29.30;;
10605;SDS011;5350;42.698;23.148;2023-02-28T10:55:14;47.37;;;28.67;;
10605;SDS011;5350;42.698;23.148;2023-02-28T10:57:42;47.33;;;29.43;;
10605;SDS011;5350;42.698;23.148;2023-02-28T11:00:13;50.07;;;28.33;;
10605;SDS011;5350;42.698;23.148;2023-02-28T11:02:42;48.90;;;28.10;;
10605;SDS011;5350;42.698;23.148;2023-02-28T11:05:24;42.97;;;27.43;;
10605;SDS011;5350;42.698;23.148;2023-02-28T11:07:54;47.47;;;27.00;;
10605;SDS011;5350;42.698;23.148;2023-02-28T11:10:24;41.47;;;26.27;;
10605;SDS011;5350;42.698;23.148;2023-02-28T11:12:55;43.43;;;26.40;;
10605;SDS011;5350;42.698;23.148;2023-02-28T11:15:23;43.73;;;27.60;;
10605;SDS011;5350;42.698;23.148;2023-02-28T11:17:53;41.37;;;26.07;;
10605;SDS011;5350;42.698;23.148;2023-02-28T11:20:21;42.17;;;26.40;;
10605;SDS011;5350;42.698;23.148;2023-02-28T11:22:52;40.43;;;25.77;;
10605;SDS011;5350;42.698;23.148;2023-02-28T11:25:22;39.77;;;26.00;;
10605;SDS011;5350;42.698;23.148;2023-02-28T11:27:51;36.80;;;25.63;;
10605;SDS011;5350;42.698;23.148;2023-02-28T11:30:26;33.20;;;23.33;;
10605;SDS011;5350;42.698;23.148;2023-02-28T11:32:59;40.40;;;24.67;;
10605;SDS011;5350;42.698;23.148;2023-02-28T11:35:28;40.57;;;25.47;;
10605;SDS011;5350;42.698;23.148;2023-02-28T11:37:59;39.13;;;24.57;;
10605;SDS011;5350;42.698;23.148;2023-02-28T11:40:30;38.97;;;24.17;;
10605;SDS011;5350;42.698;23.148;2023-02-28T11:43:09;36.37;;;23.43;;
10605;SDS011;5350;42.698;23.148;2023-02-28T11:45:46;38.03;;;22.77;;
10605;SDS011;5350;42.698;23.148;2023-02-28T11:48:26;35.83;;;23.50;;
10605;SDS011;5350;42.698;23.148;2023-02-28T11:51:02;35.87;;;22.30;;
10605;SDS011;5350;42.698;23.148;2023-02-28T11:53:47;30.37;;;20.53;;
10605;SDS011;5350;42.698;23.148;2023-02-28T11:56:25;34.10;;;20.90;;
10605;SDS011;5350;42.698;23.148;2023-02-28T11:59:02;33.93;;;20.60;;
10605;SDS011;5350;42.698;23.148;2023-02-28T12:01:48;20.43;;;13.03;;
10605;SDS011;5350;42.698;23.148;2023-02-28T12:04:29;25.47;;;12.27;;
10605;SDS011;5350;42.698;23.148;2023-02-28T12:07:07;22.87;;;12.50;;
10605;SDS011;5350;42.698;23.148;2023-02-28T12:09:44;26.27;;;12.83;;
10605;SDS011;5350;42.698;23.148;2023-02-28T12:12:23;23.03;;;11.70;;
10605;SDS011;5350;42.698;23.148;2023-02-28T12:18:24;25.37;;;13.13;;
10605;SDS011;5350;42.698;23.148;2023-02-28T12:21:07;28.23;;;12.77;;
10605;SDS011;5350;42.698;23.148;2023-02-28T12:23:49;21.70;;;12.33;;
10605;SDS011;5350;42.698;23.148;2023-02-28T12:26:31;23.10;;;11.70;;
10605;SDS011;5350;42.698;23.148;2023-02-28T12:29:04;24.27;;;11.67;;
10605;SDS011;5350;42.698;23.148;2023-02-28T12:31:40;25.40;;;11.97;;
10605;SDS011;5350;42.698;23.148;2023-02-28T12:34:12;19.73;;;12.27;;
10605;SDS011;5350;42.698;23.148;2023-02-28T12:36:45;22.40;;;12.07;;
10605;SDS011;5350;42.698;23.148;2023-02-28T12:39:16;18.83;;;12.60;;
10605;SDS011;5350;42.698;23.148;2023-02-28T12:41:51;24.23;;;12.00;;
10605;SDS011;5350;42.698;23.148;2023-02-28T12:44:21;18.83;;;11.57;;
10605;SDS011;5350;42.698;23.148;2023-02-28T12:46:54;23.90;;;12.43;;
10605;SDS011;5350;42.698;23.148;2023-02-28T12:49:25;21.90;;;12.50;;
10605;SDS011;5350;42.698;23.148;2023-02-28T12:51:56;23.30;;;12.07;;
10605;SDS011;5350;42.698;23.148;2023-02-28T12:54:28;21.57;;;11.83;;
10605;SDS011;5350;42.698;23.148;2023-02-28T12:57:00;20.90;;;12.70;;
10605;SDS011;5350;42.698;23.148;2023-02-28T12:59:34;21.90;;;13.37;;
10605;SDS011;5350;42.698;23.148;2023-02-28T13:08:09;24.47;;;11.83;;
10605;SDS011;5350;42.698;23.148;2023-02-28T13:10:51;17.33;;;11.87;;
10605;SDS011;5350;42.698;23.148;2023-02-28T13:13:20;17.93;;;11.07;;
10605;SDS011;5350;42.698;23.148;2023-02-28T13:15:59;17.17;;;11.27;;
10605;SDS011;5350;42.698;23.148;2023-02-28T13:18:32;18.23;;;11.00;;
10605;SDS011;5350;42.698;23.148;2023-02-28T13:21:02;24.10;;;10.83;;
10605;SDS011;5350;42.698;23.148;2023-02-28T13:29:32;23.53;;;11.47;;
10605;SDS011;5350;42.698;23.148;2023-02-28T13:38:09;20.53;;;10.87;;
10605;SDS011;5350;42.698;23.148;2023-02-28T13:40:47;17.50;;;9.73;;
10605;SDS011;5350;42.698;23.148;2023-02-28T13:43:16;20.70;;;10.77;;
10605;SDS011;5350;42.698;23.148;2023-02-28T13:48:35;18.03;;;9.83;;
10605;SDS011;5350;42.698;23.148;2023-02-28T13:54:13;20.93;;;11.00;;
10605;SDS011;5350;42.698;23.148;2023-02-28T13:56:56;20.93;;;11.47;;
10605;SDS011;5350;42.698;23.148;2023-02-28T13:59:35;23.47;;;9.30;;
10605;SDS011;5350;42.698;23.148;2023-02-28T14:02:22;17.93;;;9.50;;
10605;SDS011;5350;42.698;23.148;2023-02-28T14:05:04;18.57;;;9.90;;
10605;SDS011;5350;42.698;23.148;2023-02-28T14:07:33;17.77;;;9.37;;
10605;SDS011;5350;42.698;23.148;2023-02-28T14:10:08;15.00;;;8.83;;
10605;SDS011;5350;42.698;23.148;2023-02-28T14:12:55;22.10;;;9.50;;
10605;SDS011;5350;42.698;23.148;2023-02-28T14:15:36;17.10;;;9.23;;
10605;SDS011;5350;42.698;23.148;2023-02-28T14:18:13;21.00;;;9.60;;
10605;SDS011;5350;42.698;23.148;2023-02-28T14:20:43;19.00;;;8.80;;
10605;SDS011;5350;42.698;23.148;2023-02-28T14:23:15;14.93;;;8.50;;
10605;SDS011;5350;42.698;23.148;2023-02-28T14:25:53;19.70;;;9.00;;
10605;SDS011;5350;42.698;23.148;2023-02-28T14:28:36;17.60;;;8.47;;
10605;SDS011;5350;42.698;23.148;2023-02-28T14:31:13;17.63;;;8.70;;
10605;SDS011;5350;42.698;23.148;2023-02-28T14:33:45;16.60;;;8.07;;
10605;SDS011;5350;42.698;23.148;2023-02-28T14:36:25;19.80;;;8.67;;
10605;SDS011;5350;42.698;23.148;2023-02-28T14:38:57;17.30;;;8.70;;
10605;SDS011;5350;42.698;23.148;2023-02-28T14:41:28;19.20;;;8.80;;
10605;SDS011;5350;42.698;23.148;2023-02-28T14:43:57;17.53;;;8.53;;
10605;SDS011;5350;42.698;23.148;2023-02-28T14:46:28;17.33;;;8.27;;
10605;SDS011;5350;42.698;23.148;2023-02-28T14:49:02;15.77;;;8.20;;
10605;SDS011;5350;42.698;23.148;2023-02-28T14:51:31;17.80;;;9.33;;
10605;SDS011;5350;42.698;23.148;2023-02-28T14:53:59;20.17;;;8.73;;
10605;SDS011;5350;42.698;23.148;2023-02-28T14:56:28;17.87;;;8.63;;
10605;SDS011;5350;42.698;23.148;2023-02-28T14:58:59;18.43;;;8.77;;
10605;SDS011;5350;42.698;23.148;2023-02-28T15:01:26;14.23;;;8.00;;
10605;SDS011;5350;42.698;23.148;2023-02-28T15:03:58;21.23;;;9.93;;
10605;SDS011;5350;42.698;23.148;2023-02-28T15:06:27;17.83;;;9.20;;
10605;SDS011;5350;42.698;23.148;2023-02-28T15:09:08;18.73;;;9.37;;
10605;SDS011;5350;42.698;23.148;2023-02-28T15:11:37;14.80;;;8.50;;